createdAt,value
2023-05-12T00:00:31.306Z,97.6260
2023-05-12T00:01:32.754Z,97.6294
2023-05-12T00:02:33.349Z,97.6272
2023-05-12T00:03:33.693Z,97.6266
2023-05-12T00:04:34.267Z,97.6235
2023-05-12T00:05:35.053Z,97.6247
2023-05-12T00:06:35.590Z,97.6236
2023-05-12T00:07:35.948Z,97.6266
2023-05-12T00:08:36.545Z,97.6288
2023-05-12T00:09:37.906Z,97.6365
2023-05-12T00:10:38.430Z,97.6382
2023-05-12T00:11:38.681Z,97.6386
2023-05-12T00:12:39.443Z,97.6399
2023-05-12T00:16:40.666Z,97.6286
2023-05-12T00:17:40.916Z,97.6269
2023-05-12T00:18:42.040Z,97.6151
2023-05-12T00:19:43.077Z,97.6172
2023-05-12T00:20:44.023Z,97.6029
2023-05-12T00:21:43.534Z,97.6023
2023-05-12T00:22:44.409Z,97.6004
2023-05-12T00:23:44.782Z,97.5959
2023-05-12T00:24:45.661Z,97.5852
2023-05-12T00:25:45.894Z,97.5756
2023-05-12T00:26:46.530Z,97.5642
2023-05-12T00:27:47.084Z,97.5520
2023-05-12T00:28:47.472Z,97.5354
2023-05-12T00:29:49.402Z,97.5127
2023-05-12T00:33:50.911Z,97.4593
2023-05-12T00:34:51.983Z,97.4419
2023-05-12T00:36:53.212Z,97.4279
2023-05-12T00:41:56.645Z,97.3865
2023-05-12T00:43:57.198Z,97.3755
2023-05-12T00:44:57.582Z,97.3651
2023-05-12T00:45:58.774Z,97.3557
2023-05-12T00:46:59.511Z,97.3535
2023-05-12T00:48:59.918Z,97.3476
2023-05-12T00:50:00.214Z,97.3573
2023-05-12T00:51:00.789Z,97.3565
2023-05-12T00:52:01.425Z,97.3593
2023-05-12T00:53:01.877Z,97.3594
2023-05-12T00:54:02.237Z,97.3626
2023-05-12T00:55:03.666Z,97.3680
2023-05-12T00:56:04.348Z,97.3708
2023-05-12T00:57:04.541Z,97.3765
2023-05-12T00:58:05.403Z,97.3763
2023-05-12T00:59:05.982Z,97.3715
2023-05-12T01:00:07.248Z,97.3620
2023-05-12T01:01:07.899Z,97.3580
2023-05-12T01:02:07.887Z,97.3561
2023-05-12T01:03:08.581Z,97.3613
2023-05-12T01:04:09.694Z,97.3529
2023-05-12T01:09:13.694Z,97.3828
2023-05-12T01:11:14.801Z,97.3915
2023-05-12T01:12:15.687Z,97.3961
2023-05-12T01:13:16.682Z,97.4012
2023-05-12T01:14:17.625Z,97.4110
2023-05-12T01:15:18.521Z,97.4197
2023-05-12T01:16:19.043Z,97.4361
2023-05-12T01:17:19.276Z,97.4470
2023-05-12T01:18:19.936Z,97.4579
2023-05-12T01:19:20.527Z,97.4626
2023-05-12T01:20:21.235Z,97.4767
2023-05-12T01:24:23.772Z,97.5070
2023-05-12T01:25:24.263Z,97.5099
2023-05-12T01:27:25.695Z,97.5193
2023-05-12T01:28:25.952Z,97.5291
2023-05-12T01:29:26.588Z,97.5371
2023-05-12T01:30:26.833Z,97.5439
2023-05-12T01:31:27.962Z,97.5509
2023-05-12T01:32:28.650Z,97.5519
2023-05-12T01:33:29.400Z,97.5691
2023-05-12T01:34:29.768Z,97.5804
2023-05-12T01:35:30.447Z,97.5891
2023-05-12T01:36:30.928Z,97.5983
2023-05-12T01:37:31.017Z,97.6008
2023-05-12T01:38:31.919Z,97.6105
2023-05-12T01:39:32.573Z,97.6220
2023-05-12T01:40:33.319Z,97.6270
2023-05-12T01:41:33.522Z,97.6390
2023-05-12T01:42:34.777Z,97.6471
2023-05-12T01:43:35.234Z,97.6548
2023-05-12T01:44:36.483Z,97.6649
2023-05-12T01:45:37.022Z,97.6725
2023-05-12T01:46:38.438Z,97.6743
2023-05-12T01:47:39.607Z,97.6817
2023-05-12T01:48:39.956Z,97.6816
2023-05-12T01:49:40.688Z,97.6917
2023-05-12T01:50:41.454Z,97.7009
2023-05-12T01:51:42.487Z,97.7032
2023-05-12T01:52:42.882Z,97.7090
2023-05-12T01:53:43.558Z,97.7156
2023-05-12T01:54:43.593Z,97.7205
2023-05-12T01:55:44.803Z,97.7265
2023-05-12T01:56:44.957Z,97.7314
2023-05-12T01:57:46.080Z,97.7352
2023-05-12T01:58:46.621Z,97.7455
2023-05-12T01:59:47.450Z,97.7488
2023-05-12T02:00:48.222Z,97.7495
2023-05-12T02:01:49.565Z,97.7572
2023-05-12T02:02:49.531Z,97.7583
2023-05-12T02:03:49.805Z,97.7715
2023-05-12T02:04:50.977Z,97.7709
2023-05-12T02:05:51.950Z,97.7742
2023-05-12T02:06:52.928Z,97.7833
2023-05-12T02:08:54.345Z,97.7907
2023-05-12T02:09:54.545Z,97.7922
2023-05-12T02:10:56.694Z,97.7934
2023-05-12T02:11:57.543Z,97.7933
2023-05-12T02:12:58.160Z,97.7952
2023-05-12T02:13:58.737Z,97.7827
2023-05-12T02:14:59.676Z,97.7614
2023-05-12T02:15:59.714Z,97.7413
2023-05-12T02:17:00.340Z,97.7006
2023-05-12T02:18:01.140Z,97.6669
2023-05-12T02:19:02.006Z,97.6265
2023-05-12T02:20:02.730Z,97.5840
2023-05-12T02:21:03.635Z,97.5446
2023-05-12T02:22:04.201Z,97.5081
2023-05-12T02:23:04.729Z,97.4806
2023-05-12T02:24:05.925Z,97.4418
2023-05-12T02:25:06.538Z,97.4189
2023-05-12T02:26:06.554Z,97.3960
2023-05-12T02:27:07.345Z,97.3725
2023-05-12T02:28:07.889Z,97.3490
2023-05-12T02:29:08.644Z,97.3329
2023-05-12T02:30:09.313Z,97.3197
2023-05-12T02:31:10.246Z,97.3102
2023-05-12T02:32:11.382Z,97.2959
2023-05-12T02:34:11.858Z,97.2517
2023-05-12T02:38:14.082Z,97.1430
2023-05-12T02:39:15.184Z,97.1091
2023-05-12T02:40:15.255Z,97.0817
2023-05-12T02:41:16.986Z,97.0503
2023-05-12T02:42:17.063Z,97.0309
2023-05-12T02:43:18.489Z,97.0017
2023-05-12T02:44:19.040Z,96.9860
2023-05-12T02:45:19.272Z,96.9647
2023-05-12T02:46:20.051Z,96.9489
2023-05-12T02:47:20.225Z,96.9460
2023-05-12T02:48:20.940Z,96.9423
2023-05-12T02:49:21.631Z,96.9278
2023-05-12T02:50:22.550Z,96.9234
2023-05-12T02:51:22.422Z,96.9174
2023-05-12T02:55:23.940Z,96.8016
2023-05-12T02:56:24.286Z,96.7624
2023-05-12T02:57:25.197Z,96.6925
2023-05-12T02:58:25.537Z,96.6226
2023-05-12T02:59:26.653Z,96.5376
2023-05-12T03:00:27.296Z,96.4349
2023-05-12T03:01:27.532Z,96.4052
2023-05-12T03:02:27.911Z,96.4253
2023-05-12T03:03:28.711Z,96.4717
2023-05-12T03:05:30.110Z,96.5370
2023-05-12T03:08:32.594Z,96.5896
2023-05-12T03:09:33.291Z,96.5969
2023-05-12T03:10:34.030Z,96.5968
2023-05-12T03:11:34.578Z,96.6049
2023-05-12T03:12:34.803Z,96.5998
2023-05-12T03:13:35.132Z,96.6062
2023-05-12T03:14:38.528Z,96.6354
2023-05-12T03:16:37.709Z,96.6676
2023-05-12T03:17:38.059Z,96.6741
2023-05-12T03:18:38.807Z,96.6963
2023-05-12T03:19:39.557Z,96.7175
2023-05-12T03:20:39.721Z,96.7407
2023-05-12T03:21:40.864Z,96.7617
2023-05-12T03:23:41.919Z,96.7817
2023-05-12T03:25:42.706Z,96.8046
2023-05-12T03:26:44.458Z,96.8315
2023-05-12T03:27:45.559Z,96.8507
2023-05-12T03:28:47.037Z,96.8584
2023-05-12T03:29:47.234Z,96.8642
2023-05-12T03:30:47.217Z,96.8863
2023-05-12T03:31:48.403Z,96.9038
2023-05-12T03:33:49.314Z,96.9501
2023-05-12T03:35:51.413Z,96.9883
2023-05-12T03:36:52.056Z,97.0008
2023-05-12T03:37:53.203Z,97.0168
2023-05-12T03:41:54.884Z,97.0828
2023-05-12T03:42:55.105Z,97.1125
2023-05-12T03:43:56.839Z,97.1354
2023-05-12T03:44:57.174Z,97.1650
2023-05-12T03:45:57.750Z,97.1838
2023-05-12T03:46:59.133Z,97.1973
2023-05-12T03:47:59.210Z,97.2182
2023-05-12T03:49:00.041Z,97.2306
2023-05-12T03:50:00.541Z,97.2483
2023-05-12T03:51:01.123Z,97.2607
2023-05-12T03:56:05.253Z,97.3073
2023-05-12T03:57:06.363Z,97.3235
2023-05-12T03:59:07.351Z,97.3612
2023-05-12T04:00:07.434Z,97.3806
2023-05-12T04:01:08.158Z,97.3975
2023-05-12T04:02:09.471Z,97.4159
2023-05-12T04:03:10.008Z,97.4163
2023-05-12T04:04:10.068Z,97.4259
2023-05-12T04:05:10.308Z,97.4377
2023-05-12T04:07:11.513Z,97.4551
2023-05-12T04:08:11.707Z,97.4557
2023-05-12T04:09:12.867Z,97.4533
2023-05-12T04:10:12.950Z,97.4499
2023-05-12T04:11:14.917Z,97.4506
2023-05-12T04:12:15.537Z,97.4384
2023-05-12T04:13:16.726Z,97.4235
2023-05-12T04:15:17.011Z,97.3751
2023-05-12T04:16:17.314Z,97.3493
2023-05-12T04:17:18.637Z,97.3266
2023-05-12T04:18:18.795Z,97.3033
2023-05-12T04:20:20.110Z,97.2578
2023-05-12T04:26:20.547Z,97.1051
2023-05-12T04:27:21.839Z,97.0757
2023-05-12T04:28:22.133Z,97.0399
2023-05-12T04:29:22.182Z,97.0178
2023-05-12T04:30:22.690Z,97.0035
2023-05-12T04:31:23.139Z,97.0000
2023-05-12T04:32:24.757Z,96.9971
2023-05-12T04:33:25.178Z,96.9771
2023-05-12T04:34:25.678Z,96.9663
2023-05-12T04:35:26.360Z,96.9510
2023-05-12T04:36:26.940Z,96.9203
2023-05-12T04:37:27.418Z,96.8793
2023-05-12T04:38:27.792Z,96.8470
2023-05-12T04:42:29.366Z,96.7519
2023-05-12T04:44:30.371Z,96.7393
2023-05-12T04:45:31.538Z,96.7242
2023-05-12T04:46:32.493Z,96.6945
2023-05-12T04:47:32.689Z,96.6721
2023-05-12T04:48:34.183Z,96.6496
2023-05-12T04:49:34.684Z,96.6160
2023-05-12T04:50:35.601Z,96.5943
2023-05-12T04:51:35.812Z,96.5685
2023-05-12T04:52:36.302Z,96.5455
2023-05-12T04:53:37.177Z,96.4931
2023-05-12T04:54:37.635Z,96.4506
2023-05-12T04:55:37.674Z,96.4109
2023-05-12T04:56:38.427Z,96.3914
2023-05-12T04:57:38.912Z,96.3617
2023-05-12T04:58:38.782Z,96.2962
2023-05-12T04:59:41.185Z,96.2113
2023-05-12T05:00:39.928Z,96.1435
2023-05-12T05:01:41.052Z,96.0423
2023-05-12T05:05:43.686Z,95.5688
2023-05-12T05:09:46.451Z,95.1228
2023-05-12T05:10:47.419Z,95.0570
2023-05-12T05:11:48.101Z,94.9702
2023-05-12T05:12:48.735Z,94.8475
2023-05-12T05:13:49.486Z,94.8479
2023-05-12T05:14:50.062Z,94.7904
2023-05-12T05:15:50.278Z,94.6877
2023-05-12T05:16:51.174Z,94.6800
2023-05-12T05:17:52.166Z,94.5380
2023-05-12T05:18:53.018Z,94.3896
2023-05-12T05:19:58.357Z,94.2104
2023-05-12T05:20:58.327Z,94.0708
2023-05-12T05:21:54.618Z,94.2382
2023-05-12T05:22:56.020Z,94.0970
2023-05-12T05:26:58.284Z,92.8189
2023-05-12T05:28:59.801Z,92.9493
2023-05-12T05:30:00.688Z,92.8633
2023-05-12T05:31:01.842Z,92.7411
2023-05-12T05:32:02.536Z,92.3779
2023-05-12T05:33:03.722Z,92.0765
2023-05-12T05:34:04.286Z,92.1241
2023-05-12T05:35:04.987Z,92.1687
2023-05-12T05:36:05.888Z,91.7797
2023-05-12T05:37:07.004Z,91.1140
2023-05-12T05:38:07.657Z,91.0167
2023-05-12T05:39:08.863Z,90.8989
2023-05-12T05:40:09.479Z,90.6294
2023-05-12T05:41:09.642Z,90.6592
2023-05-12T05:42:09.775Z,90.2543
2023-05-12T05:43:10.874Z,90.7189
2023-05-12T05:44:11.936Z,90.8093
2023-05-12T05:45:12.702Z,90.3244
2023-05-12T05:46:13.541Z,90.1492
2023-05-12T05:47:14.124Z,89.6820
2023-05-12T05:48:15.029Z,89.7807
2023-05-12T05:49:16.053Z,90.3541
2023-05-12T05:50:17.055Z,89.4973
2023-05-12T05:51:17.111Z,89.5033
2023-05-12T05:52:17.576Z,89.5363
2023-05-12T05:53:18.481Z,88.6158
2023-05-12T05:54:18.799Z,86.3928
2023-05-12T05:55:19.454Z,87.0597
2023-05-12T05:56:19.488Z,87.7421
2023-05-12T05:58:21.549Z,87.8330
2023-05-12T05:59:22.257Z,88.8163
2023-05-12T06:00:23.294Z,88.7515
2023-05-12T06:01:24.078Z,88.2965
2023-05-12T06:02:24.628Z,88.5732
2023-05-12T06:03:25.358Z,89.2990
2023-05-12T06:04:26.642Z,89.3358
2023-05-12T06:06:27.614Z,89.6332
2023-05-12T06:08:28.406Z,88.6575
2023-05-12T06:09:28.642Z,88.8409
2023-05-12T06:10:29.797Z,88.4552
2023-05-12T06:11:30.445Z,87.4061
2023-05-12T06:12:31.281Z,87.5762
2023-05-12T06:13:31.424Z,88.2022
2023-05-12T06:14:32.491Z,87.8639
2023-05-12T06:15:32.609Z,88.2042
2023-05-12T06:16:34.482Z,87.5934
2023-05-12T06:17:35.493Z,86.6723
2023-05-12T06:18:36.307Z,87.0176
2023-05-12T06:19:37.684Z,86.7899
2023-05-12T06:20:37.936Z,86.2988
2023-05-12T06:21:38.423Z,86.5799
2023-05-12T06:22:38.905Z,86.1555
2023-05-12T06:23:40.075Z,84.2779
2023-05-12T06:24:40.593Z,83.4478
2023-05-12T06:27:43.054Z,82.9776
2023-05-12T06:28:43.649Z,82.5436
2023-05-12T06:29:44.100Z,82.9146
2023-05-12T06:30:44.441Z,83.2982
2023-05-12T06:31:45.293Z,84.3829
2023-05-12T06:32:45.918Z,83.2491
2023-05-12T06:33:47.044Z,82.6394
2023-05-12T06:34:48.161Z,83.1600
2023-05-12T06:35:48.526Z,82.1558
2023-05-12T06:36:49.408Z,82.1780
2023-05-12T06:37:50.266Z,81.7222
2023-05-12T06:38:51.500Z,81.6386
2023-05-12T06:39:52.065Z,81.5814
2023-05-12T06:40:52.964Z,81.6381
2023-05-12T06:41:53.514Z,80.6401
2023-05-12T06:42:54.315Z,80.6228
2023-05-12T06:43:54.681Z,82.8081
2023-05-12T06:44:55.225Z,81.8695
2023-05-12T06:45:55.777Z,81.8055
2023-05-12T06:46:56.927Z,84.4563
2023-05-12T06:47:57.321Z,85.5390
2023-05-12T06:48:57.814Z,85.5267
2023-05-12T06:49:58.829Z,85.2144
2023-05-12T06:50:59.352Z,83.9222
2023-05-12T06:51:59.773Z,82.6676
2023-05-12T06:53:00.984Z,82.1793
2023-05-12T06:54:01.613Z,82.3144
2023-05-12T06:55:02.170Z,82.5914
2023-05-12T06:56:02.997Z,83.5902
2023-05-12T06:57:04.123Z,83.6467
2023-05-12T06:58:05.290Z,83.8862
2023-05-12T06:59:06.633Z,82.4719
2023-05-12T07:00:07.093Z,82.2623
2023-05-12T07:01:08.243Z,76.8036
2023-05-12T07:02:08.287Z,74.4372
2023-05-12T07:08:12.459Z,76.0272
2023-05-12T07:09:13.467Z,74.2743
2023-05-12T07:10:14.444Z,76.2697
2023-05-12T07:11:15.412Z,79.8834
2023-05-12T07:12:16.635Z,79.0313
2023-05-12T07:13:17.704Z,79.7822
2023-05-12T07:14:18.705Z,81.0532
2023-05-12T07:15:19.961Z,81.7283
2023-05-12T07:16:20.395Z,83.3522
2023-05-12T07:17:21.509Z,83.8757
2023-05-12T07:18:22.557Z,83.2354
2023-05-12T07:19:22.566Z,82.7522
2023-05-12T07:20:23.728Z,81.7806
2023-05-12T07:21:24.783Z,81.8856
2023-05-12T07:22:25.644Z,81.6666
2023-05-12T07:23:26.706Z,81.7132
2023-05-12T07:24:27.902Z,80.9840
2023-05-12T07:25:28.453Z,80.0993
2023-05-12T07:29:30.657Z,71.9666
2023-05-12T07:30:31.813Z,72.3438
2023-05-12T07:31:31.851Z,72.0657
2023-05-12T07:32:32.039Z,71.4433
2023-05-12T07:33:33.278Z,66.9972
2023-05-12T07:34:34.263Z,69.7373
2023-05-12T07:35:35.261Z,71.2421
2023-05-12T07:36:36.297Z,75.4788
2023-05-12T07:37:37.277Z,72.5964
2023-05-12T07:38:38.403Z,75.7167
2023-05-12T07:39:39.485Z,76.4084
2023-05-12T07:40:40.814Z,75.4447
2023-05-12T07:41:41.857Z,75.9735
2023-05-12T07:42:42.951Z,73.9346
2023-05-12T07:43:43.803Z,69.3370
2023-05-12T07:44:44.819Z,63.6417
2023-05-12T07:45:45.060Z,67.4660
2023-05-12T07:46:46.210Z,69.2093
2023-05-12T07:47:47.473Z,70.7831
2023-05-12T07:48:47.463Z,68.7316
2023-05-12T07:49:48.438Z,69.9288
2023-05-12T07:50:49.698Z,68.4887
2023-05-12T07:55:52.832Z,73.4360
2023-05-12T07:56:53.876Z,74.4996
2023-05-12T07:57:55.089Z,75.1642
2023-05-12T07:58:56.118Z,73.3367
2023-05-12T07:59:56.131Z,75.2663
2023-05-12T08:00:57.262Z,75.1427
2023-05-12T08:01:58.513Z,74.2692
2023-05-12T08:02:58.757Z,73.0640
2023-05-12T08:13:05.203Z,70.3174
2023-05-12T08:14:05.489Z,70.8345
2023-05-12T08:15:06.583Z,68.8008
2023-05-12T08:16:06.752Z,65.0252
2023-05-12T08:17:07.221Z,66.2559
2023-05-12T08:18:08.394Z,65.1606
2023-05-12T08:19:08.476Z,65.6948
2023-05-12T08:20:08.484Z,66.0164
2023-05-12T08:21:09.527Z,65.4219
2023-05-12T08:22:09.617Z,64.9341
2023-05-12T08:23:10.093Z,65.9037
2023-05-12T08:24:11.149Z,64.7533
2023-05-12T08:25:12.665Z,61.9696
2023-05-12T08:26:12.675Z,65.3336
2023-05-12T08:27:13.875Z,67.5366
2023-05-12T08:28:14.895Z,66.2996
2023-05-12T08:29:15.898Z,69.7351
2023-05-12T08:30:16.713Z,69.1809
2023-05-12T08:31:16.853Z,68.5458
2023-05-12T08:32:16.856Z,68.6846
2023-05-12T08:33:17.952Z,68.0829
2023-05-12T08:34:18.933Z,68.7331
2023-05-12T08:35:21.066Z,69.3334
2023-05-12T08:36:20.928Z,70.9287
2023-05-12T08:37:22.014Z,71.3060
2023-05-12T08:38:22.193Z,72.8841
2023-05-12T08:39:23.108Z,72.9671
2023-05-12T08:40:24.235Z,72.6227
2023-05-12T08:41:25.217Z,72.0991
2023-05-12T08:42:26.245Z,70.3132
2023-05-12T08:43:27.152Z,70.9803
2023-05-12T08:44:27.815Z,69.0440
2023-05-12T08:45:28.825Z,66.5023
2023-05-12T08:46:30.150Z,67.7510
2023-05-12T08:47:30.342Z,69.1849
2023-05-12T08:48:30.425Z,68.7872
2023-05-12T08:49:31.476Z,72.2558
2023-05-12T08:50:31.607Z,71.6903
2023-05-12T08:51:32.826Z,70.2970
2023-05-12T09:02:53.911Z,63.5942
2023-05-12T09:03:47.449Z,62.8417
2023-05-12T09:04:48.625Z,65.2023
2023-05-12T09:05:49.078Z,67.3301
2023-05-12T09:06:50.217Z,68.0177
2023-05-12T09:07:50.629Z,66.9643
2023-05-12T09:08:51.815Z,65.1807
2023-05-12T09:09:52.975Z,66.8881
2023-05-12T09:10:53.847Z,64.7923
2023-05-12T09:11:54.883Z,62.7374
2023-05-12T09:12:55.810Z,61.0136
2023-05-12T09:13:57.074Z,64.1430
2023-05-12T09:14:58.188Z,65.0913
2023-05-12T09:15:59.355Z,65.5677
2023-05-12T09:16:59.418Z,64.8512
2023-05-12T09:18:00.011Z,66.8471
2023-05-12T09:19:00.717Z,65.7954
2023-05-12T09:20:00.769Z,67.2944
2023-05-12T09:21:00.819Z,67.9677
2023-05-12T09:22:01.907Z,66.0627
2023-05-12T09:23:02.972Z,68.4120
2023-05-12T09:24:03.974Z,68.6859
2023-05-12T09:25:05.005Z,69.6818
2023-05-12T09:26:06.077Z,70.0778
2023-05-12T09:27:07.136Z,70.0459
2023-05-12T09:28:08.213Z,69.1840
2023-05-12T09:29:09.939Z,68.7363
2023-05-12T09:30:09.471Z,66.3675
2023-05-12T09:31:09.476Z,67.6463
2023-05-12T09:32:10.929Z,66.8167
2023-05-12T09:33:10.976Z,67.0525
2023-05-12T09:34:12.032Z,64.5376
2023-05-12T09:35:13.152Z,66.9515
2023-05-12T09:36:14.174Z,65.7069
2023-05-12T09:37:16.140Z,64.5521
2023-05-12T09:38:17.152Z,64.5137
2023-05-12T09:39:17.653Z,65.1682
2023-05-12T09:40:18.717Z,62.1968
2023-05-12T09:41:19.583Z,64.4892
2023-05-12T09:42:20.625Z,64.8650
2023-05-12T09:43:21.253Z,62.0834
2023-05-12T09:44:22.439Z,59.2552
2023-05-12T09:45:23.053Z,57.9945
2023-05-12T09:46:24.197Z,56.3463
2023-05-12T09:47:24.238Z,58.4800
2023-05-12T09:48:27.466Z,61.0423
2023-05-12T09:49:26.371Z,64.8019
2023-05-12T09:54:30.404Z,65.4504
2023-05-12T09:55:31.604Z,65.5986
2023-05-12T09:56:32.737Z,64.4033
2023-05-12T09:57:33.785Z,65.2051
2023-05-12T09:58:34.945Z,64.1584
2023-05-12T09:59:35.969Z,64.4455
2023-05-12T10:01:43.956Z,64.0296
2023-05-12T10:02:44.155Z,64.2217
2023-05-12T10:03:44.251Z,64.2465
2023-05-12T10:04:44.415Z,64.5875
2023-05-12T10:05:44.993Z,62.0283
2023-05-12T10:06:45.986Z,63.1983
2023-05-12T10:07:46.985Z,63.4525
2023-05-12T10:08:48.161Z,62.7754
2023-05-12T10:09:49.316Z,60.8782
2023-05-12T10:10:50.475Z,60.7288
2023-05-12T10:11:53.537Z,56.9965
2023-05-12T10:12:52.578Z,57.9828
2023-05-12T10:13:53.538Z,58.6761
2023-05-12T10:14:54.363Z,58.5252
2023-05-12T10:15:55.428Z,59.8410
2023-05-12T10:16:56.745Z,57.8899
2023-05-12T10:17:56.956Z,57.2783
2023-05-12T10:18:58.218Z,56.3426
2023-05-12T10:19:58.293Z,54.7798
2023-05-12T10:20:59.151Z,55.9150
2023-05-12T10:22:00.247Z,55.4116
2023-05-12T10:23:01.165Z,55.0530
2023-05-12T10:24:02.248Z,54.9877
2023-05-12T10:25:03.435Z,53.4841
2023-05-12T10:26:03.973Z,54.0231
2023-05-12T10:27:05.132Z,53.0957
2023-05-12T10:28:07.033Z,54.6369
2023-05-12T10:29:06.877Z,52.1824
2023-05-12T10:30:07.321Z,53.2733
2023-05-12T10:31:07.527Z,50.0338
2023-05-12T10:32:07.498Z,50.5638
2023-05-12T10:34:09.310Z,51.3823
2023-05-12T10:35:10.381Z,52.6812
2023-05-12T10:36:11.176Z,52.3431
2023-05-12T10:37:12.247Z,51.8145
2023-05-12T10:38:13.170Z,53.4393
2023-05-12T10:39:14.292Z,55.8874
2023-05-12T10:40:15.528Z,57.7617
2023-05-12T10:41:16.543Z,56.8214
2023-05-12T10:42:16.754Z,57.9675
2023-05-12T10:53:24.408Z,61.9349
2023-05-12T10:54:24.972Z,58.1540
2023-05-12T10:55:25.374Z,58.6792
2023-05-12T10:56:25.617Z,60.5068
2023-05-12T10:57:26.047Z,60.0509
2023-05-12T10:58:26.770Z,59.7319
2023-05-12T10:59:26.384Z,60.4282
2023-05-12T11:00:26.917Z,59.8474
2023-05-12T11:01:27.660Z,61.8143
2023-05-12T11:02:30.666Z,60.5673
2023-05-12T11:03:33.405Z,60.9606
2023-05-12T11:04:33.889Z,60.4861
2023-05-12T11:05:33.694Z,58.2773
2023-05-12T11:06:34.330Z,57.7202
2023-05-12T11:10:35.790Z,58.4803
2023-05-12T11:11:36.303Z,57.6517
2023-05-12T11:12:36.801Z,56.5151
2023-05-12T11:13:36.814Z,56.5443
2023-05-12T11:14:37.783Z,59.1280
2023-05-12T11:15:38.272Z,60.3861
2023-05-12T11:16:39.542Z,59.6899
2023-05-12T11:17:40.637Z,61.2951
2023-05-12T11:18:40.676Z,60.2598
2023-05-12T11:19:42.052Z,58.6258
2023-05-12T11:20:42.921Z,58.9912
2023-05-12T11:21:44.747Z,60.4954
2023-05-12T11:25:46.033Z,61.0956
2023-05-12T11:26:47.002Z,62.6818
2023-05-12T11:27:48.176Z,61.8071
2023-05-12T11:28:49.250Z,59.9662
2023-05-12T11:29:50.267Z,61.0920
2023-05-12T11:30:53.929Z,59.3035
2023-05-12T11:31:52.395Z,58.8492
2023-05-12T11:32:53.498Z,58.8114
2023-05-12T11:34:08.277Z,60.0926
2023-05-12T11:34:55.811Z,60.6818
2023-05-12T11:35:56.608Z,61.3401
2023-05-12T11:36:57.140Z,61.9497
2023-05-12T11:56:13.156Z,48.9136
2023-05-12T11:57:14.201Z,45.6646
2023-05-12T11:58:15.110Z,47.2217
2023-05-12T11:59:16.148Z,46.6056
2023-05-12T12:00:16.512Z,46.0496
2023-05-12T12:01:17.560Z,43.9499
2023-05-12T12:02:20.043Z,44.0724
2023-05-12T12:03:18.923Z,44.8509
2023-05-12T12:04:19.781Z,45.2583
2023-05-12T12:05:20.083Z,46.0440
2023-05-12T12:06:20.216Z,44.5803
2023-05-12T12:07:21.045Z,46.4470
2023-05-12T12:08:21.327Z,45.8618
2023-05-12T12:09:22.435Z,44.5903
2023-05-12T12:10:23.560Z,43.5451
2023-05-12T12:11:24.552Z,47.4712
2023-05-12T12:12:25.572Z,48.9527
2023-05-12T12:13:27.206Z,47.7060
2023-05-12T12:14:28.340Z,44.6592
2023-05-12T12:15:29.401Z,46.2674
2023-05-12T12:16:30.640Z,45.7051
2023-05-12T12:17:31.008Z,41.4821
2023-05-12T12:18:31.508Z,41.0326
2023-05-12T12:19:32.809Z,45.5436
2023-05-12T12:20:33.673Z,46.9508
2023-05-12T12:21:34.639Z,48.6333
2023-05-12T12:22:35.714Z,49.7642
2023-05-12T12:23:49.951Z,45.6454
2023-05-12T12:24:37.217Z,46.2575
2023-05-12T12:25:38.168Z,44.7038
2023-05-12T12:26:39.663Z,45.2350
2023-05-12T12:27:39.426Z,45.8600
2023-05-12T12:28:40.573Z,45.6587
2023-05-12T12:29:41.533Z,43.9447
2023-05-12T12:30:42.566Z,44.5468
2023-05-12T12:31:43.786Z,44.5150
2023-05-12T12:32:44.924Z,42.2925
2023-05-12T12:33:45.888Z,39.9928
2023-05-12T12:34:47.116Z,39.6882
2023-05-12T12:35:47.486Z,39.7660
2023-05-12T12:36:48.575Z,42.0402
2023-05-12T12:37:48.701Z,42.4593
2023-05-12T12:38:49.536Z,41.5858
2023-05-12T12:39:50.567Z,42.2958
2023-05-12T12:40:51.626Z,41.7412
2023-05-12T12:41:52.595Z,42.2891
2023-05-12T12:42:53.515Z,41.0720
2023-05-12T12:43:54.601Z,42.8906
2023-05-12T12:44:55.645Z,46.9287
2023-05-12T12:45:56.744Z,48.1118
2023-05-12T12:46:57.606Z,45.2335
2023-05-12T12:47:58.032Z,45.9813
2023-05-12T12:48:59.164Z,45.7291
2023-05-12T12:50:00.269Z,49.6592
2023-05-12T12:51:00.312Z,49.8493
2023-05-12T12:52:01.544Z,47.5378
2023-05-12T12:53:02.480Z,46.3510
2023-05-12T12:54:03.401Z,46.0884
2023-05-12T12:55:04.402Z,46.7498
2023-05-12T12:56:05.382Z,46.3037
2023-05-12T12:57:06.461Z,46.5704
2023-05-12T12:58:07.676Z,47.4366
2023-05-12T12:59:08.661Z,45.7896
2023-05-12T13:00:09.792Z,46.0078
2023-05-12T13:01:10.828Z,46.4240
2023-05-12T13:02:12.464Z,45.4981
2023-05-12T13:03:12.048Z,45.1928
2023-05-12T13:04:12.171Z,43.2527
2023-05-12T13:05:13.198Z,45.7014
2023-05-12T13:06:14.069Z,43.6205
2023-05-12T13:07:15.116Z,40.0606
2023-05-12T13:08:16.159Z,39.1554
2023-05-12T13:09:19.668Z,41.5957
2023-05-12T13:10:17.119Z,38.7204
2023-05-12T13:11:18.100Z,41.7567
2023-05-12T13:12:19.137Z,44.3476
2023-05-12T13:13:20.042Z,43.1945
2023-05-12T13:14:21.024Z,44.1203
2023-05-12T13:15:22.403Z,44.1467
2023-05-12T13:16:22.490Z,43.9535
2023-05-12T13:17:22.442Z,45.6288
2023-05-12T13:18:23.811Z,44.6747
2023-05-12T13:19:24.632Z,45.2586
2023-05-12T13:20:25.615Z,43.9379
2023-05-12T13:21:26.518Z,46.5491
2023-05-12T13:22:27.530Z,43.1815
2023-05-12T13:23:28.529Z,43.6910
2023-05-12T13:24:29.580Z,44.0063
2023-05-12T13:25:30.729Z,42.6336
2023-05-12T13:26:31.182Z,45.5588
2023-05-12T13:27:32.190Z,43.3493
2023-05-12T13:28:33.204Z,43.4279
2023-05-12T13:29:34.346Z,42.8757
2023-05-12T13:30:35.542Z,43.6955
2023-05-12T13:31:36.510Z,49.5160
2023-05-12T13:32:37.713Z,53.6219
2023-05-12T13:33:38.872Z,54.2656
2023-05-12T13:34:39.813Z,54.2853
2023-05-12T13:35:40.719Z,52.6404
2023-05-12T13:36:41.709Z,50.3916
2023-05-12T13:37:42.841Z,50.4144
2023-05-12T13:38:43.977Z,48.4610
2023-05-12T13:39:45.043Z,44.7753
2023-05-12T13:40:46.196Z,42.3705
2023-05-12T13:41:47.250Z,40.2124
2023-05-12T13:42:48.185Z,40.9158
2023-05-12T13:43:49.269Z,42.2296
2023-05-12T13:44:50.342Z,41.9842
2023-05-12T13:45:50.557Z,38.9822
2023-05-12T13:46:50.744Z,40.5606
2023-05-12T13:47:51.883Z,40.2605
2023-05-12T13:48:51.858Z,41.2161
2023-05-12T13:49:52.955Z,38.0380
2023-05-12T13:50:54.103Z,37.0299
2023-05-12T13:51:55.239Z,39.7713
2023-05-12T13:52:56.509Z,37.1461
2023-05-12T13:53:57.609Z,36.3388
2023-05-12T13:54:59.168Z,38.7849
2023-05-12T13:55:59.329Z,40.7176
2023-05-12T13:57:00.315Z,40.2764
2023-05-12T13:58:01.299Z,41.4751
2023-05-12T13:59:02.336Z,43.2302
2023-05-12T14:00:03.281Z,41.1509
2023-05-12T14:01:04.986Z,41.2851
2023-05-12T14:02:06.111Z,40.1408
2023-05-12T14:03:07.253Z,41.9242
2023-05-12T14:04:08.510Z,42.0801
2023-05-12T14:05:08.806Z,39.8944
2023-05-12T14:06:09.953Z,39.4443
2023-05-12T14:07:10.668Z,40.1595
2023-05-12T14:08:11.665Z,39.3888
2023-05-12T14:09:12.934Z,36.9679
2023-05-12T14:10:13.722Z,38.5966
2023-05-12T14:11:14.736Z,40.7314
2023-05-12T14:12:15.900Z,42.9384
2023-05-12T14:13:17.034Z,43.3306
2023-05-12T14:14:18.106Z,45.9972
2023-05-12T14:15:32.286Z,47.9359
2023-05-12T14:16:23.882Z,49.1844
2023-05-12T14:17:24.036Z,48.0019
2023-05-12T14:18:24.098Z,47.2038
2023-05-12T14:19:24.203Z,52.6128
2023-05-12T14:20:25.476Z,53.0763
2023-05-12T14:21:25.198Z,49.9765
2023-05-12T14:22:26.813Z,49.3626
2023-05-12T14:23:27.394Z,48.2487
2023-05-12T14:24:28.365Z,49.0887
2023-05-12T14:25:29.501Z,48.8159
2023-05-12T14:26:30.678Z,49.8209
2023-05-12T14:27:31.827Z,50.7316
2023-05-12T14:28:32.351Z,49.6728
2023-05-12T14:29:32.984Z,48.7400
2023-05-12T14:30:33.004Z,49.7896
2023-05-12T14:31:34.212Z,52.8420
2023-05-12T14:32:35.397Z,50.8628
2023-05-12T14:33:36.453Z,50.6995
2023-05-12T14:34:37.626Z,50.1548
2023-05-12T14:35:37.994Z,52.5721
2023-05-12T14:36:39.087Z,53.9191
2023-05-12T14:37:41.229Z,54.3700
2023-05-12T14:38:41.580Z,54.8797
2023-05-12T14:39:42.623Z,55.9176
2023-05-12T14:40:44.316Z,53.3597